createdAt,value
2023-05-19T00:01:21.832Z,101011.31
2023-05-19T00:04:30.864Z,101006.97
2023-05-19T00:07:38.905Z,101002.50
2023-05-19T00:10:41.726Z,101001.66
2023-05-19T00:13:49.744Z,101013.81
2023-05-19T00:16:56.025Z,101011.75
2023-05-19T00:20:01.558Z,101013.09
2023-05-19T00:23:03.868Z,101029.91
2023-05-19T00:26:06.677Z,101014.38
2023-05-19T00:29:08.956Z,101000.81
2023-05-19T00:32:11.580Z,101002.72
2023-05-19T00:35:14.133Z,101007.09
2023-05-19T00:38:19.497Z,101005.56
2023-05-19T00:41:22.765Z,100992.16
2023-05-19T00:44:25.298Z,100994.28
2023-05-19T00:47:30.165Z,100997.19
2023-05-19T00:50:35.473Z,100994.25
2023-05-19T00:53:43.946Z,100978.69
2023-05-19T00:56:46.368Z,100983.84
2023-05-19T00:59:51.357Z,100989.44
2023-05-19T01:02:57.144Z,100992.25
2023-05-19T01:06:07.372Z,100988.94
2023-05-19T01:09:12.345Z,100993.72
2023-05-19T01:12:18.459Z,100981.50
2023-05-19T01:15:21.024Z,100982.56
2023-05-19T01:18:56.228Z,100986.34
2023-05-19T01:22:14.922Z,100992.66
2023-05-19T01:25:48.256Z,100991.81
2023-05-19T01:29:28.088Z,100996.06
2023-05-19T01:32:34.791Z,100990.59
2023-05-19T01:35:45.882Z,100980.56
2023-05-19T01:38:54.002Z,100987.63
2023-05-19T01:41:58.205Z,100982.56
2023-05-19T01:45:06.139Z,100981.81
2023-05-19T01:48:12.082Z,100965.22
2023-05-19T01:51:16.548Z,100978.44
2023-05-19T01:54:19.034Z,100986.44
2023-05-19T01:57:55.685Z,100982.84
2023-05-19T02:01:16.993Z,100984.31
2023-05-19T02:04:20.358Z,100981.72
2023-05-19T02:07:35.657Z,100984.06
2023-05-19T02:10:50.485Z,100986.03
2023-05-19T02:13:58.161Z,100989.22
2023-05-19T02:17:05.025Z,100990.72
2023-05-19T02:20:12.295Z,100989.78
2023-05-19T02:23:17.575Z,100990.38
2023-05-19T02:26:19.876Z,100994.97
2023-05-19T02:29:22.187Z,100992.88
2023-05-19T02:32:28.218Z,100990.34
2023-05-19T02:35:33.762Z,100984.69
2023-05-19T02:38:36.365Z,100993.56
2023-05-19T02:41:41.212Z,100979.00
2023-05-19T02:44:48.660Z,100986.16
2023-05-19T02:47:51.056Z,100975.13
2023-05-19T02:50:59.399Z,100973.47
2023-05-19T02:54:04.661Z,100980.25
2023-05-19T02:57:07.142Z,100974.56
2023-05-19T03:00:11.705Z,100971.44
2023-05-19T03:03:14.989Z,100980.38
2023-05-19T03:06:18.735Z,100973.47
2023-05-19T03:09:23.438Z,100974.91
2023-05-19T03:12:26.105Z,100983.75
2023-05-19T03:15:34.368Z,100991.94
2023-05-19T03:18:37.265Z,100986.56
2023-05-19T03:21:39.578Z,100991.19
2023-05-19T03:24:44.703Z,100997.50
2023-05-19T03:27:51.816Z,100997.09
2023-05-19T03:30:56.638Z,101002.13
2023-05-19T03:34:03.545Z,100987.84
2023-05-19T03:37:08.131Z,100998.25
2023-05-19T03:40:15.567Z,100999.72
2023-05-19T03:43:19.619Z,100994.25
2023-05-19T03:46:30.534Z,100995.47
2023-05-19T03:49:51.010Z,101000.09
2023-05-19T03:53:16.520Z,100993.31
2023-05-19T03:56:25.122Z,100989.72
2023-05-19T03:59:29.788Z,100999.50
2023-05-19T04:02:34.702Z,100997.97
2023-05-19T04:05:37.064Z,100995.88
2023-05-19T04:08:40.019Z,101003.59
2023-05-19T04:11:43.116Z,101007.13
2023-05-19T04:14:48.407Z,101002.88
2023-05-19T04:17:50.779Z,101009.09
2023-05-19T04:20:54.029Z,101004.22
2023-05-19T04:23:56.430Z,101015.94
2023-05-19T04:27:02.557Z,101018.31
2023-05-19T04:30:06.932Z,101006.19
2023-05-19T04:33:12.001Z,101011.75
2023-05-19T04:36:14.562Z,101023.53
2023-05-19T04:39:19.131Z,101012.34
2023-05-19T04:42:21.873Z,101032.09
2023-05-19T04:45:26.133Z,101031.69
2023-05-19T04:48:31.416Z,101028.63
2023-05-19T04:51:33.868Z,101023.41
2023-05-19T04:54:38.654Z,101029.09
2023-05-19T04:57:41.798Z,101028.66
2023-05-19T05:00:47.092Z,101035.25
2023-05-19T05:03:49.420Z,101031.78
2023-05-19T05:06:54.411Z,101033.00
2023-05-19T05:10:00.884Z,101036.34
2023-05-19T05:13:06.317Z,101035.97
2023-05-19T05:16:09.488Z,101035.72
2023-05-19T05:19:14.599Z,101047.66
2023-05-19T05:22:17.614Z,101044.94
2023-05-19T05:25:20.656Z,101056.63
2023-05-19T05:28:26.733Z,101041.56
2023-05-19T05:31:34.762Z,101043.28
2023-05-19T05:34:42.032Z,101035.38
2023-05-19T05:37:49.461Z,101040.16
2023-05-19T05:40:56.703Z,101040.22
2023-05-19T05:43:59.229Z,101040.75
2023-05-19T05:47:03.947Z,101039.97
2023-05-19T05:50:10.069Z,101038.16
2023-05-19T05:53:21.481Z,101041.41
2023-05-19T05:56:30.795Z,101048.41
2023-05-19T05:59:34.375Z,101044.25
2023-05-19T06:02:39.054Z,101045.56
2023-05-19T06:05:41.413Z,101041.66
2023-05-19T06:08:44.841Z,101043.91
2023-05-19T06:11:52.170Z,101043.81
2023-05-19T06:14:54.720Z,101053.66
2023-05-19T06:18:20.022Z,101053.47
2023-05-19T06:21:26.060Z,101058.56
2023-05-19T06:24:33.881Z,101058.25
2023-05-19T06:27:36.304Z,101065.28
2023-05-19T06:30:41.477Z,101057.00
2023-05-19T06:34:04.692Z,101064.19
2023-05-19T06:37:07.151Z,101072.75
2023-05-19T06:40:11.371Z,101083.63
2023-05-19T06:43:20.512Z,101079.00
2023-05-19T06:46:33.560Z,101087.16
2023-05-19T06:49:36.121Z,101093.88
2023-05-19T06:52:38.477Z,101086.72
2023-05-19T06:55:54.405Z,101093.69
2023-05-19T06:59:02.058Z,101084.56
2023-05-19T07:02:13.111Z,101095.13
2023-05-19T07:05:15.643Z,101076.91
2023-05-19T07:08:21.909Z,101084.31
2023-05-19T07:11:24.729Z,101072.75
2023-05-19T07:14:27.376Z,101074.72
2023-05-19T07:17:29.877Z,101073.38
2023-05-19T07:20:34.782Z,101069.50
2023-05-19T07:23:39.465Z,101064.75
2023-05-19T07:26:44.268Z,101057.13
2023-05-19T07:29:46.664Z,101057.28
2023-05-19T07:32:49.102Z,101051.72
2023-05-19T07:35:51.392Z,101052.50
2023-05-19T07:38:53.797Z,101038.56
2023-05-19T07:41:56.169Z,101046.97
2023-05-19T07:45:01.226Z,101040.69
2023-05-19T07:48:04.168Z,101055.53
2023-05-19T07:51:10.077Z,101051.00
2023-05-19T07:54:12.415Z,101046.41
2023-05-19T07:57:14.725Z,101047.53
2023-05-19T08:00:21.943Z,101041.19
2023-05-19T08:03:24.277Z,101042.47
2023-05-19T08:06:30.115Z,101041.50
2023-05-19T08:09:35.544Z,101033.72
2023-05-19T08:12:37.863Z,101037.69
2023-05-19T08:15:42.864Z,101030.00
2023-05-19T08:18:45.166Z,101034.84
2023-05-19T08:21:48.398Z,101026.47
2023-05-19T08:24:51.823Z,101017.06
2023-05-19T08:27:56.374Z,101015.91
2023-05-19T08:30:58.757Z,101016.19
2023-05-19T08:34:01.040Z,101018.41
2023-05-19T08:37:03.644Z,101006.06
2023-05-19T08:40:07.236Z,101014.00
2023-05-19T08:43:12.921Z,101017.69
2023-05-19T08:46:16.995Z,100997.25
2023-05-19T08:49:28.498Z,101014.78
2023-05-19T08:52:53.136Z,101004.91
2023-05-19T08:56:04.714Z,101017.34
2023-05-19T08:59:10.590Z,101013.13
2023-05-19T09:02:16.508Z,100998.66
2023-05-19T09:05:19.636Z,101007.78
2023-05-19T09:08:22.674Z,101001.47
2023-05-19T09:11:29.527Z,101015.22
2023-05-19T09:14:34.808Z,101001.31
2023-05-19T09:17:37.257Z,101013.59
2023-05-19T09:20:41.506Z,101019.88
2023-05-19T09:23:49.778Z,101008.81
2023-05-19T09:26:58.010Z,101009.66
2023-05-19T09:30:10.987Z,101009.06
2023-05-19T09:33:17.201Z,101012.84
2023-05-19T09:36:21.881Z,101015.38
2023-05-19T09:39:29.009Z,101010.41
2023-05-19T09:42:37.786Z,101014.88
2023-05-19T09:45:40.081Z,101013.19
2023-05-19T09:48:44.822Z,101008.75
2023-05-19T09:51:52.901Z,101013.97
2023-05-19T09:54:57.744Z,101001.91
2023-05-19T09:58:01.226Z,100991.47
2023-05-19T10:01:07.676Z,100996.00
2023-05-19T10:04:10.306Z,100991.41
2023-05-19T10:07:14.718Z,100985.03
2023-05-19T10:10:20.030Z,100986.78
2023-05-19T10:13:29.734Z,100983.59
2023-05-19T10:16:32.753Z,100975.50
2023-05-19T10:19:36.512Z,100972.66
2023-05-19T10:22:39.646Z,100984.56
2023-05-19T10:25:45.358Z,100985.13
2023-05-19T10:28:50.961Z,100960.50
2023-05-19T10:31:55.283Z,100978.22
2023-05-19T10:35:07.514Z,100980.53
2023-05-19T10:38:15.860Z,100981.84
2023-05-19T10:41:40.042Z,100979.97
2023-05-19T10:44:45.085Z,100969.38
2023-05-19T10:47:47.453Z,100963.69
2023-05-19T10:50:56.547Z,100956.19
2023-05-19T10:54:02.822Z,100970.16
2023-05-19T10:57:14.219Z,100961.59
2023-05-19T11:00:31.823Z,100960.75
2023-05-19T11:03:53.848Z,100938.81
2023-05-19T11:06:57.824Z,100940.44
2023-05-19T11:10:06.085Z,100928.28
2023-05-19T11:13:23.113Z,100935.06
2023-05-19T11:16:29.534Z,100935.94
2023-05-19T11:19:37.137Z,100932.66
2023-05-19T11:22:40.124Z,100927.13
2023-05-19T11:25:44.738Z,100937.97
2023-05-19T11:28:48.195Z,100925.97
2023-05-19T11:31:53.111Z,100928.69
2023-05-19T11:35:00.834Z,100941.81
2023-05-19T11:38:07.235Z,100931.19
2023-05-19T11:41:09.604Z,100931.25
2023-05-19T11:44:12.200Z,100933.72
2023-05-19T11:47:15.928Z,100924.59
2023-05-19T11:50:22.997Z,100929.28
2023-05-19T11:53:25.419Z,100930.78
2023-05-19T11:56:30.008Z,100926.13
2023-05-19T11:59:39.128Z,100935.69
2023-05-19T12:02:44.084Z,100928.38
2023-05-19T12:05:52.807Z,100933.81
2023-05-19T12:08:55.530Z,100910.56
2023-05-19T12:12:01.076Z,100914.63
2023-05-19T12:15:04.111Z,100912.06
2023-05-19T12:18:07.373Z,100905.16
2023-05-19T12:21:12.180Z,100907.53
2023-05-19T12:24:17.635Z,100895.56
2023-05-19T12:27:20.842Z,100898.88
2023-05-19T12:30:34.234Z,100888.22
2023-05-19T12:33:39.586Z,100888.91
2023-05-19T12:36:44.508Z,100889.16
2023-05-19T12:39:50.790Z,100880.97
2023-05-19T12:42:59.245Z,100872.91
2023-05-19T12:46:13.550Z,100878.25
2023-05-19T12:49:18.276Z,100870.50
2023-05-19T12:52:24.094Z,100874.41
2023-05-19T12:55:26.541Z,100874.66
2023-05-19T12:58:28.898Z,100852.34
2023-05-19T13:01:31.750Z,100866.78
2023-05-19T13:04:36.650Z,100863.19
2023-05-19T13:07:38.938Z,100867.06
2023-05-19T13:10:44.634Z,100863.16
2023-05-19T13:13:51.875Z,100859.88
2023-05-19T13:16:54.267Z,100861.28
2023-05-19T13:19:59.135Z,100860.53
2023-05-19T13:23:06.677Z,100848.28
2023-05-19T13:26:13.680Z,100841.63
2023-05-19T13:29:16.030Z,100844.31
2023-05-19T13:32:20.600Z,100845.75
2023-05-19T13:35:23.051Z,100840.53
2023-05-19T13:38:25.393Z,100837.13
2023-05-19T13:41:30.203Z,100832.06
2023-05-19T13:44:32.890Z,100822.63
2023-05-19T13:47:38.804Z,100825.72
2023-05-19T13:50:41.100Z,100825.00
2023-05-19T13:53:43.496Z,100818.63
2023-05-19T13:56:48.850Z,100825.63
2023-05-19T14:00:02.018Z,100821.81
2023-05-19T14:03:16.326Z,100811.28
2023-05-19T14:06:20.995Z,100817.59
2023-05-19T14:09:26.955Z,100807.78
2023-05-19T14:12:41.384Z,100807.47
2023-05-19T14:15:49.752Z,100814.28
2023-05-19T14:18:52.268Z,100814.50
2023-05-19T14:21:56.803Z,100807.63
2023-05-19T14:25:00.493Z,100811.28
2023-05-19T14:28:05.148Z,100804.16
2023-05-19T14:31:14.821Z,100810.38
2023-05-19T14:34:21.206Z,100806.19
2023-05-19T14:37:28.961Z,100800.09
2023-05-19T14:40:31.644Z,100807.00
2023-05-19T14:43:34.104Z,100803.84
2023-05-19T14:46:38.903Z,100806.53
2023-05-19T14:49:41.244Z,100813.47
2023-05-19T14:52:46.022Z,100809.94
2023-05-19T14:55:49.579Z,100805.31
2023-05-19T14:58:55.664Z,100803.59
2023-05-19T15:02:02.750Z,100797.06
2023-05-19T15:05:08.093Z,100793.41
2023-05-19T15:08:10.463Z,100797.16
2023-05-19T15:11:12.891Z,100783.13
2023-05-19T15:14:18.686Z,100781.13
2023-05-19T15:17:23.378Z,100783.59
2023-05-19T15:20:27.448Z,100785.91
2023-05-19T15:23:36.437Z,100795.25
2023-05-19T15:26:41.149Z,100792.84
2023-05-19T15:29:43.690Z,100792.75
2023-05-19T15:32:46.003Z,100790.16
2023-05-19T15:35:51.694Z,100782.34
2023-05-19T15:38:54.094Z,100786.25
2023-05-19T15:41:56.440Z,100783.28
2023-05-19T15:45:05.391Z,100797.38
2023-05-19T15:48:08.189Z,100789.53
2023-05-19T15:51:13.056Z,100792.47
2023-05-19T15:54:15.465Z,100785.88
2023-05-19T15:57:20.926Z,100782.41
2023-05-19T16:00:25.475Z,100785.25
2023-05-19T16:03:27.877Z,100788.66
2023-05-19T16:06:34.951Z,100776.91
2023-05-19T16:09:37.286Z,100787.19
2023-05-19T16:12:43.971Z,100785.38
2023-05-19T16:15:46.297Z,100790.94
2023-05-19T16:18:48.684Z,100790.06
2023-05-19T16:21:53.391Z,100798.56
2023-05-19T16:24:55.788Z,100793.00
2023-05-19T16:27:58.155Z,100774.69
2023-05-19T16:31:02.914Z,100805.44
2023-05-19T16:34:05.215Z,100804.59
2023-05-19T16:37:09.943Z,100793.03
2023-05-19T16:40:15.082Z,100797.22
2023-05-19T16:43:19.691Z,100801.50
2023-05-19T16:46:24.650Z,100802.06
2023-05-19T16:49:27.016Z,100800.38
2023-05-19T16:52:29.355Z,100796.94
2023-05-19T16:55:32.759Z,100793.28
2023-05-19T16:58:35.507Z,100790.09
2023-05-19T17:01:40.130Z,100794.88
2023-05-19T17:04:44.959Z,100802.66
2023-05-19T17:07:49.724Z,100803.53
2023-05-19T17:10:52.037Z,100801.06
2023-05-19T17:13:54.417Z,100800.00
2023-05-19T17:16:59.279Z,100790.03
2023-05-19T17:20:02.113Z,100804.84
2023-05-19T17:23:06.995Z,100803.75
2023-05-19T17:26:14.452Z,100801.91
2023-05-19T17:29:16.645Z,100810.78
2023-05-19T17:32:25.881Z,100802.50
2023-05-19T17:35:28.665Z,100804.47
2023-05-19T17:38:40.115Z,100815.53
2023-05-19T17:41:45.225Z,100819.44
2023-05-19T17:44:49.704Z,100821.75
2023-05-19T17:47:54.188Z,100818.97
2023-05-19T17:50:56.899Z,100813.47
2023-05-19T17:53:59.829Z,100824.03
2023-05-19T17:57:12.950Z,100826.81
2023-05-19T18:00:17.663Z,100817.44
2023-05-19T18:03:23.595Z,100820.75
2023-05-19T18:06:28.172Z,100826.56
2023-05-19T18:09:36.186Z,100818.31
2023-05-19T18:12:38.821Z,100821.34
2023-05-19T18:15:43.457Z,100816.09
2023-05-19T18:18:50.645Z,100809.16
2023-05-19T18:21:53.237Z,100814.16
2023-05-19T18:24:58.106Z,100821.91
2023-05-19T18:28:05.762Z,100818.31
2023-05-19T18:31:17.575Z,100819.16
2023-05-19T18:34:25.577Z,100833.28
2023-05-19T18:37:28.634Z,100831.63
2023-05-19T18:40:33.444Z,100834.13
2023-05-19T18:43:36.150Z,100831.38
2023-05-19T18:46:38.403Z,100843.53
2023-05-19T18:49:43.211Z,100833.84
2023-05-19T18:52:50.376Z,100846.00
2023-05-19T18:55:53.363Z,100847.41
2023-05-19T18:58:55.674Z,100845.19
2023-05-19T19:02:00.744Z,100829.69
2023-05-19T19:05:04.092Z,100853.50
2023-05-19T19:08:11.469Z,100843.50
2023-05-19T19:11:16.243Z,100836.31
2023-05-19T19:14:19.410Z,100845.97
2023-05-19T19:17:21.815Z,100848.44
2023-05-19T19:20:24.267Z,100853.94
2023-05-19T19:23:27.544Z,100855.53
2023-05-19T19:26:34.634Z,100856.03
2023-05-19T19:29:41.470Z,100860.47
2023-05-19T19:32:43.902Z,100866.53
2023-05-19T19:35:49.122Z,100858.22
2023-05-19T19:38:51.883Z,100862.06
2023-05-19T19:41:57.275Z,100864.53
2023-05-19T19:45:02.227Z,100875.88
2023-05-19T19:48:09.469Z,100873.69
2023-05-19T19:51:16.790Z,100877.03
2023-05-19T19:54:19.092Z,100878.19
2023-05-19T19:57:21.455Z,100872.66
2023-05-19T20:00:26.197Z,100877.66
2023-05-19T20:03:29.768Z,100878.28
2023-05-19T20:06:33.280Z,100874.34
2023-05-19T20:09:35.623Z,100877.94
2023-05-19T20:12:38.282Z,100886.78
2023-05-19T20:15:43.905Z,100887.00
2023-05-19T20:18:48.480Z,100894.47
2023-05-19T20:21:53.673Z,100875.66
2023-05-19T20:24:55.922Z,100882.53
2023-05-19T20:28:02.080Z,100886.97
2023-05-19T20:31:05.191Z,100877.56
2023-05-19T20:34:07.494Z,100886.97
2023-05-19T20:37:13.808Z,100883.63
2023-05-19T20:40:18.719Z,100879.16
2023-05-19T20:43:21.315Z,100874.47
2023-05-19T20:46:28.613Z,100879.78
2023-05-19T20:49:31.224Z,100880.59
2023-05-19T20:52:36.037Z,100873.66
2023-05-19T20:55:42.254Z,100873.91
2023-05-19T20:58:44.506Z,100890.22
2023-05-19T21:01:47.453Z,100883.03
2023-05-19T21:04:52.403Z,100884.47
2023-05-19T21:07:54.784Z,100886.84
2023-05-19T21:10:59.446Z,100878.53
2023-05-19T21:14:04.291Z,100880.75
2023-05-19T21:17:07.446Z,100880.44
2023-05-19T21:20:13.381Z,100870.44
2023-05-19T21:23:15.771Z,100875.91
2023-05-19T21:26:18.175Z,100881.25
2023-05-19T21:29:23.080Z,100885.13
2023-05-19T21:32:25.840Z,100889.72
2023-05-19T21:35:30.560Z,100878.28
2023-05-19T21:38:33.013Z,100893.56
2023-05-19T21:41:35.569Z,100880.47
2023-05-19T21:44:40.179Z,100875.78
2023-05-19T21:47:42.530Z,100882.59
2023-05-19T21:50:52.592Z,100869.59
2023-05-19T21:53:54.932Z,100877.88
2023-05-19T21:56:57.360Z,100873.97
2023-05-19T21:59:59.734Z,100870.03
2023-05-19T22:03:02.445Z,100862.16
2023-05-19T22:06:06.528Z,100866.47
2023-05-19T22:09:11.631Z,100871.25
2023-05-19T22:12:16.408Z,100848.75
2023-05-19T22:15:21.063Z,100858.72
2023-05-19T22:18:25.813Z,100856.88
2023-05-19T22:21:28.153Z,100849.69
2023-05-19T22:24:35.536Z,100854.44
2023-05-19T22:27:38.186Z,100842.75
2023-05-19T22:30:42.179Z,100837.03
2023-05-19T22:33:44.880Z,100841.97
2023-05-19T22:36:47.343Z,100840.88
2023-05-19T22:39:51.961Z,100835.28
2023-05-19T22:42:56.515Z,100829.19
2023-05-19T22:45:58.873Z,100831.34
2023-05-19T22:49:01.216Z,100841.78
2023-05-19T22:52:06.203Z,100841.53
2023-05-19T22:55:11.076Z,100843.84
2023-05-19T22:58:13.626Z,100830.00
2023-05-19T23:01:18.849Z,100825.91
2023-05-19T23:04:21.675Z,100822.81
2023-05-19T23:07:24.021Z,100820.16
2023-05-19T23:10:26.374Z,100817.91
2023-05-19T23:13:31.686Z,100812.84
2023-05-19T23:16:34.031Z,100822.47
2023-05-19T23:19:39.462Z,100825.00
2023-05-19T23:22:41.817Z,100822.50
2023-05-19T23:25:44.106Z,100819.81
2023-05-19T23:28:48.809Z,100821.66
2023-05-19T23:31:51.450Z,100824.38
2023-05-19T23:34:56.107Z,100816.16
2023-05-19T23:38:03.173Z,100825.28
2023-05-19T23:41:05.838Z,100824.34
2023-05-19T23:44:08.623Z,100815.47
2023-05-19T23:47:11.001Z,100818.00
2023-05-19T23:50:13.329Z,100803.03
2023-05-19T23:53:18.006Z,100807.47
2023-05-19T23:56:22.606Z,100805.03
2023-05-19T23:59:29.870Z,100795.25
